首页
METAR-TAF:

METAR-TAF

机场 :

山口宇部機場

宇部, 日本

纬度: 33-57N, 经度: 131-15E, 海拔: 5米

当前天气观测

该预报发布于2小时和23分钟前的12:00 UTC
风速4节,风向北转西北
温度 20°C
湿度 94%
气压 1017 hPa
能见度10公里或以上
少量云层高于2500英尺
散云层高于6000英尺
阴天层高于12000英尺
小雨

METAR: RJDC 241200Z 33004KT 9999 -RA FEW025 SCT060 OVC120 20/19 Q1017

时间: 23:23 (14:23 UTC)


TAF: 丢失

超过4000个机场的气象观测和天气预报(METAR&TAF报告)。

可查询的气象台以黄色和红色小点在地图上表示。

将鼠标移到小点上方,可查看气象台名称。

然后点击查看天气观测和预报。

如需切换地图:点击带黑十字的绿色按钮放大地图;点击带横线的绿色按钮缩小地图;或者点击绿色箭头查看邻近地区的地图。


METAR-TAF: